Airfield :
LOGIN :

Register | Disclaimer

   EN    FR    IT 

 










Legend :    VFR   Marginal VFR   IFR   Intensive IFR   Very Intensive IFR
Visi :
Ceiling :
>= 8 km
>= 3000ft
5 to 8 km
1000 to 3000 ft
1500m to 5 km
500 to 1000 ft
800 to 1500m
200 to 500 ft
< 800m
< 200 ft
Symbols :   Thunderstorms  Fog  Heavy snow  Heavy precipitations  Wind > 20 kt
SIGMETs :     Misc.  Thunderstorms  Icing  Turbulence  Mountain Waves  Volcanic Ashes







- Airport Elevation : 106 ft
- IATA code : NRN


EDLV - Weeze

CURRENT METAR :
  • 192150Z 00000KT 9999 BKN044 19/17 Q1024

EXPIRED METARs :
  • 192120Z 00000KT 9000 BKN039 19/17 Q1024
  • 192050Z 00000KT 9999 BKN030 19/17 Q1024
  • 192020Z VRB02KT 9000 BKN042 19/17 Q1024
  • 191950Z VRB02KT 9999 BKN044 20/16 Q1024
  • 191920Z VRB03KT 9999 BKN040 20/16 Q1023

TAF TAF EDLV
Valid from the 19 at 18:00 until the 20 at 18:00 UTC


191700Z 1918/2018 22003KT 9999 SCT025 BKN045
TEMPO 2001/2005 4000 BR BKN010
BECMG 2006/2009 23009KT
No reported NOTAMs for that airfield.



MET'MAP, your aeronautical weather chart ! - Copyright ORBIFLY December 2007 - Disclaimer

ORBIFLY MET'MAP TEAM :

Programming & Development : Alexandra Zaïnal
Concept & Development : Baudouin d'Aumeries
Co-Development & Prog : Marc-Olivier Méhu
Technical & hardware support : Manuel Goepfert

Contact : metmap@orbifly.com




SOURCES & CREDITS :

   NOAA